Aviation Digital Data Service (ADDS)

Output produced by TAFs form (2119 UTC 02 May 2016)
found at http://aviationweather.gov/adds/tafs/
 
KDRO 021724Z 0218/0318 28007KT P6SM VCSH FEW030 BKN040 
     FM030200 35004KT P6SM SCT250 
     FM031300 05004KT P6SM SCT250 
     FM031700 18004KT P6SM SCT250